Time;durP1;ratioP1;P1;durP2;ratioP2;P2;SDS_P1;SDS_P2;PMS_P1;PMS_P2;Temp;Humidity;BMP_temperature;BMP_pressure;BME280_temperature;BME280_humidity;BME280_pressure;Samples;Min_cycle;Max_cycle;Signal;HPM_P1;HPM_P2
2024/03/07 00:00:54;;;;;;;34.53;20.67;;;2.30;99.90;;;;;;5081323;28;20796;-52
2024/03/07 00:03:24;;;;;;;32.97;17.75;;;2.30;99.90;;;;;;5066563;28;20040;-46
2024/03/07 00:05:51;;;;;;;34.22;18.85;;;2.30;99.90;;;;;;5081131;28;20044;-49
2024/03/07 00:08:18;;;;;;;36.72;20.30;;;2.20;99.90;;;;;;5071170;28;20093;-51
2024/03/07 00:10:46;;;;;;;31.98;19.40;;;2.20;99.90;;;;;;5078686;28;20066;-49
2024/03/07 00:13:13;;;;;;;31.65;18.50;;;2.20;99.90;;;;;;5061293;28;20116;-49
2024/03/07 00:15:41;;;;;;;27.63;17.30;;;2.10;99.90;;;;;;5065001;28;20056;-47
2024/03/07 00:18:10;;;;;;;24.77;17.10;;;2.10;99.90;;;;;;5073162;28;20048;-48
2024/03/07 00:20:37;;;;;;;29.77;16.73;;;2.00;99.90;;;;;;5073182;28;20123;-48
2024/03/07 00:23:06;;;;;;;26.27;16.90;;;2.00;99.90;;;;;;5074852;28;20508;-45
2024/03/07 00:25:33;;;;;;;28.77;17.02;;;2.00;99.90;;;;;;5069545;28;20040;-48
2024/03/07 00:28:02;;;;;;;29.65;16.80;;;2.00;99.90;;;;;;5077199;28;20066;-50
2024/03/07 00:30:30;;;;;;;26.73;15.77;;;1.90;99.90;;;;;;5058474;28;20441;-48
2024/03/07 00:32:57;;;;;;;28.25;16.17;;;1.90;99.90;;;;;;5071798;28;20051;-45
2024/03/07 00:35:25;;;;;;;28.63;16.35;;;1.90;99.90;;;;;;5074302;28;20123;-50
2024/03/07 00:37:52;;;;;;;30.83;16.58;;;1.80;99.90;;;;;;5070733;28;20515;-47
2024/03/07 00:40:19;;;;;;;26.67;15.88;;;1.80;99.90;;;;;;5071160;28;20110;-48
2024/03/07 00:42:46;;;;;;;30.60;17.13;;;1.80;99.90;;;;;;5078283;28;20040;-47
2024/03/07 00:45:13;;;;;;;31.23;17.45;;;1.80;99.90;;;;;;5067366;28;20136;-53
2024/03/07 00:47:40;;;;;;;29.50;16.27;;;1.80;99.90;;;;;;5073362;28;20127;-49
2024/03/07 00:50:09;;;;;;;26.15;15.80;;;1.80;99.90;;;;;;5073244;28;20050;-48
2024/03/07 00:52:36;;;;;;;24.83;14.82;;;1.80;99.90;;;;;;5075519;28;20060;-48
2024/03/07 00:55:04;;;;;;;26.13;15.82;;;1.80;99.90;;;;;;5076532;28;20047;-50
2024/03/07 00:57:31;;;;;;;26.92;15.07;;;1.80;99.90;;;;;;5075008;28;20064;-47
2024/03/07 00:59:58;;;;;;;26.33;15.30;;;1.70;99.90;;;;;;5068097;28;20167;-48
2024/03/07 01:02:25;;;;;;;27.02;15.75;;;1.80;99.90;;;;;;5075244;28;20051;-50
2024/03/07 01:04:54;;;;;;;23.92;14.80;;;1.80;99.90;;;;;;5079609;28;20143;-51
2024/03/07 01:07:23;;;;;;;27.88;15.48;;;1.80;99.90;;;;;;5060652;28;20068;-50
2024/03/07 01:09:51;;;;;;;26.83;14.98;;;1.90;99.90;;;;;;5065212;28;20048;-50
2024/03/07 01:12:19;;;;;;;25.85;14.82;;;2.10;99.90;;;;;;5059185;28;20048;-49
2024/03/07 01:14:47;;;;;;;24.17;14.00;;;2.20;99.90;;;;;;5068810;28;20107;-53
2024/03/07 01:17:14;;;;;;;26.27;15.77;;;2.30;99.90;;;;;;5074200;28;20072;-47
2024/03/07 01:19:41;;;;;;;26.17;16.10;;;2.40;99.90;;;;;;5071864;28;20044;-48
2024/03/07 01:22:08;;;;;;;23.40;14.07;;;2.50;99.90;;;;;;5066211;28;20048;-49
2024/03/07 01:24:35;;;;;;;25.58;14.98;;;2.70;99.90;;;;;;5071409;28;20127;-46
2024/03/07 01:27:03;;;;;;;24.90;14.48;;;2.80;99.90;;;;;;5076116;28;20097;-47
2024/03/07 01:29:30;;;;;;;26.13;14.88;;;2.90;99.90;;;;;;5070885;28;20033;-49
2024/03/07 01:31:57;;;;;;;24.65;15.43;;;3.00;99.90;;;;;;5062526;28;20579;-50
2024/03/07 01:34:24;;;;;;;24.17;15.13;;;3.10;99.90;;;;;;5070148;28;20106;-46
2024/03/07 01:36:51;;;;;;;27.23;15.63;;;3.10;99.90;;;;;;5075758;28;20079;-53
2024/03/07 01:39:18;;;;;;;27.48;15.30;;;3.20;99.90;;;;;;5066339;28;20051;-46
2024/03/07 01:41:45;;;;;;;24.30;14.52;;;3.20;99.90;;;;;;5071953;28;20068;-52
2024/03/07 01:44:12;;;;;;;25.52;14.60;;;3.20;99.90;;;;;;5072757;28;20044;-50
2024/03/07 01:46:40;;;;;;;28.40;15.07;;;3.30;99.90;;;;;;5072950;28;20051;-51
2024/03/07 01:49:08;;;;;;;24.13;15.27;;;3.30;99.90;;;;;;5072950;28;20075;-53
2024/03/07 01:51:37;;;;;;;24.95;14.93;;;3.40;99.90;;;;;;5064352;28;20040;-50
2024/03/07 01:54:07;;;;;;;22.40;14.43;;;3.40;99.90;;;;;;5076872;28;20122;-54
2024/03/07 01:56:36;;;;;;;23.98;15.05;;;3.40;99.90;;;;;;5074159;28;20040;-53
2024/03/07 01:59:05;;;;;;;22.25;14.07;;;3.40;99.90;;;;;;5076294;28;20056;-49
2024/03/07 02:01:32;;;;;;;22.00;14.27;;;3.40;99.90;;;;;;5062043;28;20049;-47
2024/03/07 02:03:59;;;;;;;23.05;13.93;;;3.50;99.90;;;;;;5074481;28;20127;-47
2024/03/07 02:06:28;;;;;;;24.48;14.20;;;3.50;99.90;;;;;;5072315;28;20489;-46
2024/03/07 02:08:54;;;;;;;23.60;15.15;;;3.50;99.90;;;;;;5070382;28;20047;-48
2024/03/07 02:11:23;;;;;;;23.92;15.00;;;3.50;99.90;;;;;;5071390;28;20102;-50
2024/03/07 02:13:51;;;;;;;24.52;15.02;;;3.40;99.90;;;;;;5070971;28;20582;-49
2024/03/07 02:16:18;;;;;;;23.08;13.73;;;3.50;99.90;;;;;;5064108;28;20424;-49
2024/03/07 02:18:45;;;;;;;25.60;15.32;;;3.50;99.90;;;;;;5077429;28;20517;-47
2024/03/07 02:21:13;;;;;;;23.58;14.80;;;3.40;99.90;;;;;;5068689;28;20048;-52
2024/03/07 02:23:41;;;;;;;25.48;14.80;;;3.40;99.90;;;;;;5074930;28;20064;-51
2024/03/07 02:26:08;;;;;;;26.10;15.40;;;3.40;99.90;;;;;;5073750;28;20135;-46
2024/03/07 02:28:35;;;;;;;20.58;14.52;;;3.40;99.90;;;;;;5070569;28;20048;-52
2024/03/07 02:31:02;;;;;;;25.80;13.80;;;3.40;99.90;;;;;;5076789;28;20427;-49
2024/03/07 02:33:32;;;;;;;20.85;13.00;;;3.40;99.90;;;;;;5069232;28;20124;-53
2024/03/07 02:35:59;;;;;;;22.67;13.95;;;3.40;99.90;;;;;;5067624;28;20131;-50
2024/03/07 02:38:26;;;;;;;22.05;14.60;;;3.40;99.90;;;;;;5072746;28;20488;-50
2024/03/07 02:40:53;;;;;;;21.55;13.27;;;3.40;99.90;;;;;;5079504;28;20052;-48
2024/03/07 02:43:20;;;;;;;20.15;13.55;;;3.30;99.90;;;;;;5073314;28;20140;-49
2024/03/07 02:45:46;;;;;;;23.60;14.55;;;3.40;99.90;;;;;;5078466;28;20044;-49
2024/03/07 02:48:13;;;;;;;23.13;13.32;;;3.40;99.90;;;;;;5079023;28;20058;-51
2024/03/07 02:50:41;;;;;;;20.75;13.65;;;3.40;99.90;;;;;;5074970;28;20079;-46
2024/03/07 02:53:09;;;;;;;20.15;13.68;;;3.30;99.90;;;;;;5066384;28;20427;-50
2024/03/07 02:55:36;;;;;;;22.17;13.52;;;3.30;99.90;;;;;;5078280;28;20420;-49
2024/03/07 02:58:03;;;;;;;21.95;13.85;;;3.20;99.90;;;;;;5077872;28;20179;-47
2024/03/07 03:00:29;;;;;;;23.13;13.75;;;3.20;99.90;;;;;;5068011;28;20336;-47
2024/03/07 03:02:57;;;;;;;20.65;12.93;;;3.20;99.90;;;;;;5076984;28;20048;-50
2024/03/07 03:05:24;;;;;;;26.08;13.75;;;3.20;99.90;;;;;;5077526;28;20047;-52
2024/03/07 03:07:54;;;;;;;23.60;13.57;;;3.20;99.90;;;;;;5078999;28;20052;-46
2024/03/07 03:10:33;;;;;;;28.17;15.75;;;3.20;99.90;;;;;;5077988;28;20130;-46
2024/03/07 03:13:00;;;;;;;26.40;14.93;;;3.10;99.90;;;;;;5072015;28;20047;-52
2024/03/07 03:15:28;;;;;;;28.10;16.25;;;3.10;99.90;;;;;;5072875;28;20425;-47
2024/03/07 03:17:59;;;;;;;26.60;14.75;;;3.20;99.90;;;;;;5076210;28;20062;-53
2024/03/07 03:20:39;;;;;;;29.00;15.75;;;3.10;99.90;;;;;;5073912;28;20033;-45
2024/03/07 03:23:11;;;;;;;29.70;16.67;;;3.10;99.90;;;;;;5076377;28;20040;-45
2024/03/07 03:25:48;;;;;;;31.05;16.73;;;3.10;99.90;;;;;;5077387;28;20070;-55
2024/03/07 03:28:16;;;;;;;25.35;16.30;;;3.10;99.90;;;;;;5078325;28;20108;-46
2024/03/07 03:30:43;;;;;;;26.30;14.45;;;3.10;99.90;;;;;;5063849;28;20044;-50
2024/03/07 03:33:11;;;;;;;23.67;15.25;;;3.10;99.90;;;;;;5063649;28;20433;-51
2024/03/07 03:35:39;;;;;;;25.58;15.48;;;3.10;99.90;;;;;;5071378;28;20047;-49
2024/03/07 03:38:07;;;;;;;30.63;17.48;;;3.10;99.90;;;;;;5069362;28;20052;-51
2024/03/07 03:40:34;;;;;;;21.25;14.48;;;3.20;99.90;;;;;;5076937;28;20049;-47
2024/03/07 03:43:02;;;;;;;23.27;13.73;;;3.20;99.90;;;;;;5067650;28;20097;-48
2024/03/07 03:45:32;;;;;;;20.20;12.90;;;3.20;99.90;;;;;;5073906;28;20377;-49
2024/03/07 03:47:58;;;;;;;22.05;13.27;;;3.20;99.90;;;;;;5081608;28;20708;-48
2024/03/07 03:50:26;;;;;;;22.25;13.48;;;3.20;99.90;;;;;;5070031;28;20044;-46
2024/03/07 03:52:53;;;;;;;22.75;13.05;;;3.20;99.90;;;;;;5073901;28;20050;-57
2024/03/07 03:55:20;;;;;;;22.10;12.60;;;3.10;99.90;;;;;;5077970;28;20084;-56
2024/03/07 03:57:48;;;;;;;22.17;12.82;;;3.10;99.90;;;;;;5079694;28;20370;-49
2024/03/07 04:00:16;;;;;;;21.40;12.82;;;3.00;99.90;;;;;;5066820;28;20399;-47
2024/03/07 04:02:48;;;;;;;20.80;12.52;;;3.00;99.90;;;;;;5076372;28;20421;-50
2024/03/07 04:05:18;;;;;;;21.65;12.98;;;2.90;99.90;;;;;;5076820;28;20072;-47
2024/03/07 04:07:45;;;;;;;21.80;13.52;;;2.80;99.90;;;;;;5074026;28;20445;-48
2024/03/07 04:10:17;;;;;;;22.67;13.60;;;2.70;99.90;;;;;;5080349;28;20043;-51
2024/03/07 04:12:44;;;;;;;;;;;2.60;99.90;;;;;;5072316;28;20098;-48
2024/03/07 04:15:16;;;;;;;21.50;12.75;;;2.60;99.90;;;;;;5069568;28;19939;-51
2024/03/07 04:17:46;;;;;;;21.02;12.52;;;2.40;99.90;;;;;;5069013;28;20421;-52
2024/03/07 04:20:16;;;;;;;20.23;13.52;;;2.40;99.90;;;;;;5072669;28;20563;-51
2024/03/07 04:22:44;;;;;;;22.50;13.05;;;2.30;99.90;;;;;;5071524;28;20443;-49
2024/03/07 04:25:10;;;;;;;19.27;12.48;;;2.20;99.90;;;;;;5075274;28;20072;-48
2024/03/07 04:27:39;;;;;;;23.05;13.48;;;2.10;99.90;;;;;;5076661;28;20048;-52
2024/03/07 04:30:09;;;;;;;19.77;13.00;;;2.00;99.90;;;;;;5076343;28;20044;-46
2024/03/07 04:32:37;;;;;;;21.08;13.25;;;1.90;99.90;;;;;;5066758;28;20433;-50
2024/03/07 04:35:10;;;;;;;24.40;13.98;;;1.80;99.90;;;;;;5060154;28;20076;-50
2024/03/07 04:37:38;;;;;;;27.98;15.23;;;1.70;99.90;;;;;;5061198;28;20101;-50
2024/03/07 04:40:16;;;;;;;23.70;14.07;;;1.60;99.90;;;;;;5073545;28;20113;-52
2024/03/07 04:42:47;;;;;;;27.02;14.85;;;1.60;99.90;;;;;;5076326;28;20046;-50
2024/03/07 04:45:15;;;;;;;28.65;15.15;;;1.50;99.90;;;;;;5073749;28;20067;-50
2024/03/07 04:47:42;;;;;;;30.98;15.05;;;1.50;99.90;;;;;;5066172;28;20048;-50
2024/03/07 04:50:10;;;;;;;32.50;16.13;;;1.50;99.90;;;;;;5057782;28;20041;-47
2024/03/07 04:52:39;;;;;;;29.83;15.90;;;1.60;99.90;;;;;;5075434;28;20048;-47
2024/03/07 04:55:10;;;;;;;24.85;14.50;;;1.60;99.90;;;;;;5070739;28;20063;-45
2024/03/07 04:57:39;;;;;;;26.38;16.00;;;1.60;99.90;;;;;;5075112;28;20442;-50
2024/03/07 05:00:11;;;;;;;28.00;15.43;;;1.60;99.90;;;;;;5075258;28;20084;-45
2024/03/07 05:02:38;;;;;;;25.63;15.65;;;1.70;99.90;;;;;;5063765;28;20498;-47
2024/03/07 05:05:05;;;;;;;26.27;15.82;;;1.80;99.90;;;;;;5071086;28;20036;-46
2024/03/07 05:07:32;;;;;;;30.20;16.95;;;1.80;99.90;;;;;;5069246;28;20052;-50
2024/03/07 05:10:00;;;;;;;30.15;15.85;;;1.90;99.90;;;;;;5073939;28;20119;-51
2024/03/07 05:12:27;;;;;;;29.13;16.55;;;1.90;99.90;;;;;;5073884;28;20040;-46
2024/03/07 05:14:54;;;;;;;26.67;15.88;;;2.00;99.90;;;;;;5075171;28;20048;-47
2024/03/07 05:17:22;;;;;;;27.00;16.17;;;2.00;99.90;;;;;;5070326;28;20048;-50
2024/03/07 05:19:49;;;;;;;24.67;14.90;;;2.10;99.90;;;;;;5077143;28;20044;-47
2024/03/07 05:22:18;;;;;;;26.05;14.98;;;2.10;99.90;;;;;;5075140;28;20132;-46
2024/03/07 05:24:45;;;;;;;22.40;14.02;;;2.20;99.90;;;;;;5074330;28;20080;-49
2024/03/07 05:27:12;;;;;;;25.55;14.85;;;2.30;99.90;;;;;;5076403;28;20193;-49
2024/03/07 05:29:39;;;;;;;25.05;15.45;;;2.30;99.90;;;;;;5066538;28;20041;-47
2024/03/07 05:32:26;;;;;;;23.50;14.55;;;2.40;99.90;;;;;;5060796;28;20041;-48
2024/03/07 05:34:54;;;;;;;23.23;14.77;;;2.40;99.90;;;;;;5073952;28;20128;-52
2024/03/07 05:37:22;;;;;;;22.00;13.90;;;2.40;99.90;;;;;;5070565;28;20122;-46
2024/03/07 05:39:50;;;;;;;27.65;15.20;;;2.40;99.90;;;;;;5075670;28;20102;-44
2024/03/07 05:42:17;;;;;;;22.52;13.30;;;2.40;99.90;;;;;;5075032;28;20128;-49
2024/03/07 05:44:44;;;;;;;23.15;14.70;;;2.40;99.90;;;;;;5075002;28;20071;-51
2024/03/07 05:47:13;;;;;;;26.38;15.45;;;2.40;99.90;;;;;;5068360;28;20408;-47
2024/03/07 05:49:40;;;;;;;23.88;14.85;;;2.50;99.90;;;;;;5075739;28;20045;-51
2024/03/07 05:52:07;;;;;;;26.58;15.90;;;2.60;99.90;;;;;;5073079;28;20049;-46
2024/03/07 05:54:35;;;;;;;24.90;15.93;;;2.60;99.90;;;;;;5075589;28;20209;-50
2024/03/07 05:57:02;;;;;;;24.48;15.48;;;2.60;99.90;;;;;;5080595;28;20133;-48
2024/03/07 05:59:33;;;;;;;24.42;15.23;;;2.70;99.90;;;;;;5073975;28;20102;-49
2024/03/07 06:02:00;;;;;;;26.25;15.23;;;2.70;99.90;;;;;;5062758;28;20044;-45
2024/03/07 06:04:27;;;;;;;25.55;16.15;;;2.80;99.90;;;;;;5069114;28;20044;-51
2024/03/07 06:06:54;;;;;;;29.13;17.30;;;2.90;99.90;;;;;;5071895;28;20464;-49
2024/03/07 06:09:21;;;;;;;25.05;16.13;;;2.90;99.90;;;;;;5073382;28;20126;-45
2024/03/07 06:11:49;;;;;;;27.63;15.88;;;2.90;99.90;;;;;;5074211;28;20462;-46
2024/03/07 06:14:17;;;;;;;27.17;16.33;;;2.90;99.90;;;;;;5074205;28;20132;-48
2024/03/07 06:16:44;;;;;;;25.98;15.43;;;3.00;99.90;;;;;;5072199;28;20048;-46
2024/03/07 06:19:12;;;;;;;25.67;15.00;;;3.00;99.90;;;;;;5074060;28;20412;-49
2024/03/07 06:21:40;;;;;;;23.73;15.30;;;3.00;99.90;;;;;;5078873;28;20078;-52
2024/03/07 06:24:10;;;;;;;24.55;15.52;;;3.10;99.90;;;;;;5069046;28;20059;-48
2024/03/07 06:29:11;;;;;;;24.73;15.23;;;3.20;99.90;;;;;;5063301;28;20591;-45
2024/03/07 06:31:38;;;;;;;24.80;16.20;;;3.30;99.90;;;;;;5074566;28;20660;-48
2024/03/07 06:34:06;;;;;;;26.75;15.45;;;3.30;99.90;;;;;;5076634;28;20044;-49
2024/03/07 06:36:33;;;;;;;23.45;15.40;;;3.50;99.90;;;;;;5074569;28;20057;-48
2024/03/07 06:39:00;;;;;;;24.73;15.00;;;3.60;99.90;;;;;;5074258;28;20151;-48
2024/03/07 06:41:28;;;;;;;27.67;16.40;;;3.60;99.90;;;;;;5076308;28;20054;-47
2024/03/07 06:43:55;;;;;;;23.45;15.25;;;3.70;99.90;;;;;;5080690;28;20473;-48
2024/03/07 06:46:23;;;;;;;29.30;16.70;;;3.80;99.90;;;;;;5075455;28;20046;-50
2024/03/07 06:48:51;;;;;;;30.55;15.90;;;3.90;99.90;;;;;;5078482;28;20063;-48
2024/03/07 06:51:18;;;;;;;27.35;16.27;;;4.10;99.90;;;;;;5074013;28;20071;-48
2024/03/07 06:53:46;;;;;;;24.73;16.63;;;4.30;99.90;;;;;;5075751;28;20044;-47
2024/03/07 06:56:14;;;;;;;25.90;16.75;;;4.50;99.90;;;;;;5075357;28;20055;-46
2024/03/07 06:58:42;;;;;;;32.92;16.98;;;4.60;99.90;;;;;;5077002;28;20127;-47
2024/03/07 07:01:12;;;;;;;28.92;17.98;;;4.60;99.90;;;;;;5075573;28;20072;-50
2024/03/07 07:03:39;;;;;;;30.83;17.58;;;4.50;99.90;;;;;;5072674;28;20040;-51
2024/03/07 07:06:06;;;;;;;28.45;16.80;;;4.50;99.90;;;;;;5076147;28;20041;-47
2024/03/07 07:08:33;;;;;;;26.77;17.45;;;4.60;99.90;;;;;;5072325;28;20049;-49
2024/03/07 07:11:03;;;;;;;25.55;15.98;;;4.60;99.90;;;;;;5075202;28;20131;-49
2024/03/07 07:13:31;;;;;;;24.70;15.50;;;4.60;99.90;;;;;;5075516;28;20053;-46
2024/03/07 07:15:58;;;;;;;25.02;15.48;;;4.50;99.90;;;;;;5073074;28;20080;-50
2024/03/07 07:18:25;;;;;;;28.20;17.08;;;4.50;99.90;;;;;;5078380;28;20285;-48
2024/03/07 07:20:53;;;;;;;25.73;16.10;;;4.50;99.90;;;;;;5077337;28;20101;-47
2024/03/07 07:23:20;;;;;;;31.02;17.33;;;4.40;99.90;;;;;;5075791;28;20485;-50
2024/03/07 07:25:47;;;;;;;31.85;17.88;;;4.40;99.90;;;;;;5076892;28;20405;-54
2024/03/07 07:28:15;;;;;;;29.17;17.58;;;4.40;99.90;;;;;;5076935;28;20067;-49
2024/03/07 07:30:42;;;;;;;28.75;16.88;;;4.40;99.90;;;;;;5071878;28;20060;-50
2024/03/07 07:33:13;;;;;;;27.00;16.25;;;4.40;99.90;;;;;;5076140;28;20067;-50
2024/03/07 07:35:40;;;;;;;32.42;18.23;;;4.50;99.90;;;;;;5073441;28;20187;-47
2024/03/07 07:38:10;;;;;;;25.40;15.18;;;4.50;99.90;;;;;;5077749;28;20054;-51
2024/03/07 07:40:38;;;;;;;25.83;17.05;;;4.40;99.90;;;;;;5078054;28;20131;-53
2024/03/07 07:43:05;;;;;;;24.20;15.98;;;4.40;99.90;;;;;;5078058;28;20056;-46
2024/03/07 07:45:35;;;;;;;24.27;15.38;;;4.50;99.90;;;;;;5074790;28;20079;-47
2024/03/07 07:48:03;;;;;;;27.52;17.00;;;4.50;99.90;;;;;;5075855;28;20420;-48
2024/03/07 07:50:34;;;;;;;27.55;16.67;;;4.50;99.90;;;;;;5073525;28;20037;-48
2024/03/07 07:53:05;;;;;;;28.25;18.00;;;4.60;99.90;;;;;;5079296;28;20088;-56
2024/03/07 07:55:32;;;;;;;30.02;17.25;;;4.60;99.90;;;;;;5072902;28;20121;-46
2024/03/07 07:58:03;;;;;;;27.45;16.42;;;4.70;99.90;;;;;;5075929;28;20270;-47
2024/03/07 08:00:31;;;;;;;26.75;16.73;;;4.80;99.90;;;;;;5074559;28;20045;-49
2024/03/07 08:03:06;;;;;;;28.10;17.05;;;4.80;99.90;;;;;;5075978;28;20446;-54
2024/03/07 08:05:35;;;;;;;29.02;17.40;;;4.90;99.90;;;;;;5075061;28;20101;-49
2024/03/07 08:08:07;;;;;;;26.60;17.15;;;5.00;99.90;;;;;;5077564;28;20043;-52
2024/03/07 08:10:36;;;;;;;28.13;17.50;;;5.10;99.90;;;;;;5073137;28;20505;-48
2024/03/07 08:13:05;;;;;;;29.08;17.65;;;5.20;99.90;;;;;;5072608;28;20040;-52
2024/03/07 08:15:33;;;;;;;27.08;16.83;;;5.30;99.90;;;;;;5068706;28;20094;-48
2024/03/07 08:18:00;;;;;;;27.40;16.73;;;5.40;99.90;;;;;;5077429;28;20058;-52
2024/03/07 08:20:28;;;;;;;27.55;16.33;;;5.50;99.90;;;;;;5074841;28;21053;-51
2024/03/07 08:22:56;;;;;;;31.60;18.52;;;5.60;99.90;;;;;;5075954;28;20047;-50
2024/03/07 08:25:26;;;;;;;28.58;17.38;;;5.60;99.90;;;;;;5069678;28;20729;-52
2024/03/07 08:27:54;;;;;;;27.90;17.40;;;5.70;99.90;;;;;;5072505;28;20044;-47
2024/03/07 08:30:22;;;;;;;29.92;17.25;;;5.80;99.90;;;;;;5062821;28;20068;-51
2024/03/07 08:32:55;;;;;;;25.25;16.73;;;5.90;99.90;;;;;;5065323;28;20400;-51
2024/03/07 08:35:23;;;;;;;28.10;16.27;;;6.10;99.90;;;;;;5071352;28;20051;-54
2024/03/07 08:37:54;;;;;;;26.90;16.23;;;6.30;99.90;;;;;;5067126;28;20086;-50
2024/03/07 08:40:24;;;;;;;26.90;17.40;;;6.50;99.90;;;;;;5070263;28;20072;-49
2024/03/07 08:42:55;;;;;;;29.10;17.25;;;6.80;99.90;;;;;;5072179;28;20384;-47
2024/03/07 08:45:25;;;;;;;24.08;15.25;;;7.10;99.90;;;;;;5074335;28;20127;-51
2024/03/07 08:47:55;;;;;;;28.63;17.35;;;7.40;99.90;;;;;;5078172;28;20147;-44
2024/03/07 08:50:23;;;;;;;28.20;16.77;;;7.70;99.90;;;;;;5066361;28;20040;-49
2024/03/07 08:52:50;;;;;;;28.40;16.98;;;7.90;99.90;;;;;;5070853;28;20036;-53
2024/03/07 08:55:27;;;;;;;27.17;16.33;;;8.00;99.90;;;;;;5072773;28;20101;-49
2024/03/07 08:57:54;;;;;;;26.02;17.38;;;8.20;99.90;;;;;;5067756;28;20055;-48
2024/03/07 09:00:24;;;;;;;26.08;17.17;;;8.20;99.90;;;;;;5077347;28;20048;-48
2024/03/07 09:02:57;;;;;;;25.10;17.15;;;8.20;99.90;;;;;;5077560;28;20075;-48
2024/03/07 09:05:26;;;;;;;24.42;15.95;;;8.40;99.90;;;;;;5077948;28;20087;-50
2024/03/07 09:07:54;;;;;;;25.20;15.98;;;8.20;99.90;;;;;;5073054;28;20235;-51
2024/03/07 09:10:21;;;;;;;24.60;17.10;;;8.40;99.90;;;;;;5073771;28;20144;-51
2024/03/07 09:12:51;;;;;;;23.92;15.57;;;8.50;99.90;;;;;;5074650;28;20044;-49
2024/03/07 09:15:21;;;;;;;22.80;15.33;;;8.50;99.90;;;;;;5069498;28;20106;-50
2024/03/07 09:17:48;;;;;;;23.73;15.48;;;8.50;99.90;;;;;;5073428;28;20295;-50
2024/03/07 09:20:15;;;;;;;24.98;14.30;;;8.70;99.90;;;;;;5074787;28;20401;-49
2024/03/07 09:22:50;;;;;;;21.25;15.10;;;8.70;99.90;;;;;;5075838;28;20081;-47
2024/03/07 09:25:18;;;;;;;24.25;15.10;;;8.80;99.90;;;;;;5070763;28;20056;-49
2024/03/07 09:27:46;;;;;;;23.55;15.43;;;8.90;99.90;;;;;;5075514;28;20117;-49
2024/03/07 09:30:19;;;;;;;25.60;15.35;;;9.00;99.90;;;;;;5070313;28;20048;-49
2024/03/07 09:32:46;;;;;;;24.10;15.75;;;8.80;99.90;;;;;;5064697;28;20050;-54
2024/03/07 09:35:14;;;;;;;23.33;16.73;;;8.90;99.90;;;;;;5078634;28;20051;-52
2024/03/07 09:37:42;;;;;;;22.15;15.38;;;9.20;99.90;;;;;;5072266;28;20644;-48
2024/03/07 09:40:11;;;;;;;24.95;15.73;;;9.20;99.90;;;;;;5076294;28;20089;-48
2024/03/07 09:42:52;;;;;;;24.25;17.27;;;9.50;99.90;;;;;;5076624;28;20476;-46
2024/03/07 09:45:22;;;;;;;23.35;16.50;;;9.60;99.90;;;;;;5070108;28;20060;-53
2024/03/07 09:47:51;;;;;;;21.48;15.70;;;9.80;99.90;;;;;;5063373;28;20126;-50
2024/03/07 09:50:23;;;;;;;21.58;15.43;;;10.10;99.90;;;;;;5064251;28;20115;-52
2024/03/07 09:52:56;;;;;;;26.23;16.75;;;10.20;99.90;;;;;;5081554;28;20044;-44
2024/03/07 09:55:26;;;;;;;22.75;14.45;;;10.20;99.90;;;;;;5070051;28;20041;-49
2024/03/07 09:57:55;;;;;;;19.23;14.00;;;10.30;99.90;;;;;;5079422;28;20134;-49
2024/03/07 10:00:25;;;;;;;22.20;15.95;;;10.20;99.90;;;;;;5067301;28;20359;-50
2024/03/07 10:02:58;;;;;;;19.37;14.07;;;10.30;99.90;;;;;;5073537;28;20527;-49
2024/03/07 10:05:30;;;;;;;20.00;14.73;;;10.50;99.90;;;;;;5080200;28;20048;-49
2024/03/07 10:07:58;;;;;;;23.13;15.48;;;10.60;99.90;;;;;;5072523;28;20047;-50
2024/03/07 10:10:25;;;;;;;20.20;15.10;;;10.60;99.90;;;;;;5075198;28;20135;-48
2024/03/07 10:12:53;;;;;;;20.50;14.73;;;10.80;99.90;;;;;;5074330;28;20052;-50
2024/03/07 10:15:21;;;;;;;22.75;15.43;;;11.10;99.90;;;;;;5068243;28;20044;-52
2024/03/07 10:17:48;;;;;;;21.90;15.32;;;11.20;99.90;;;;;;5075424;28;20075;-48
2024/03/07 10:20:20;;;;;;;19.35;13.95;;;11.50;99.90;;;;;;5068554;28;20501;-48
2024/03/07 10:22:50;;;;;;;20.33;14.88;;;11.50;99.90;;;;;;5082092;28;20555;-46
2024/03/07 10:25:18;;;;;;;21.30;14.65;;;11.60;99.90;;;;;;5077151;28;20135;-53
2024/03/07 10:27:48;;;;;;;20.00;14.10;;;11.60;99.90;;;;;;5072893;28;20155;-52
2024/03/07 10:30:20;;;;;;;25.27;15.77;;;11.50;99.90;;;;;;5066916;28;20132;-53
2024/03/07 10:32:54;;;;;;;19.60;14.93;;;11.50;99.90;;;;;;5065910;28;20102;-49
2024/03/07 10:35:24;;;;;;;20.48;14.80;;;11.40;99.90;;;;;;5074073;28;20055;-48
2024/03/07 10:37:55;;;;;;;25.05;14.18;;;11.30;99.90;;;;;;5075746;28;20052;-47
2024/03/07 10:40:25;;;;;;;22.08;15.95;;;11.40;99.90;;;;;;5078086;28;20048;-48
2024/03/07 10:42:56;;;;;;;33.65;23.60;;;11.40;99.90;;;;;;5082286;28;20075;-50
2024/03/07 10:45:26;;;;;;;20.13;15.73;;;11.50;99.90;;;;;;5075535;28;20041;-52
2024/03/07 10:47:55;;;;;;;22.95;15.95;;;11.50;99.90;;;;;;5078043;28;20258;-49
2024/03/07 10:50:45;;;;;;;22.00;15.15;;;11.40;99.90;;;;;;5070224;28;20538;-49
2024/03/07 10:53:45;;;;;;;19.92;14.63;;;11.60;99.90;;;;;;5072847;28;20040;-50
2024/03/07 10:56:24;;;;;;;23.35;15.90;;;11.30;99.90;;;;;;5073013;28;20097;-52
2024/03/07 10:59:04;;;;;;;21.15;15.32;;;11.30;99.90;;;;;;5074544;28;20531;-48
2024/03/07 11:01:33;;;;;;;20.40;14.43;;;11.50;99.90;;;;;;5067369;28;20048;-48
2024/03/07 11:04:05;;;;;;;22.40;15.30;;;11.60;99.90;;;;;;5072576;28;20139;-49
2024/03/07 11:06:37;;;;;;;18.50;14.68;;;11.90;99.90;;;;;;5067678;28;20048;-50
2024/03/07 11:09:10;;;;;;;;;;;11.80;99.90;;;;;;5082795;28;20044;-54
2024/03/07 11:11:40;;;;;;;18.45;13.23;;;11.60;99.90;;;;;;5070897;28;20431;-52
2024/03/07 11:14:10;;;;;;;24.73;14.32;;;11.80;99.90;;;;;;5079168;28;20068;-51
2024/03/07 11:16:41;;;;;;;17.38;13.25;;;11.50;99.90;;;;;;5066847;28;20036;-47
2024/03/07 11:19:19;;;;;;;16.77;13.45;;;11.60;99.90;;;;;;5078455;28;20052;-52
2024/03/07 11:21:46;;;;;;;17.73;13.52;;;11.50;99.90;;;;;;5071770;28;20517;-47
2024/03/07 11:24:28;;;;;;;18.02;12.95;;;11.50;99.90;;;;;;5076298;28;20475;-51
2024/03/07 11:26:57;;;;;;;17.52;12.93;;;11.90;99.90;;;;;;5080249;28;20052;-49
2024/03/07 11:29:42;;;;;;;19.77;14.45;;;11.90;99.90;;;;;;5072421;28;20032;-53
2024/03/07 11:32:11;;;;;;;17.92;13.82;;;11.70;99.90;;;;;;5071212;28;20149;-52
2024/03/07 11:34:41;;;;;;;18.17;13.13;;;11.90;99.90;;;;;;5075706;28;20136;-54
2024/03/07 11:37:17;;;;;;;19.45;12.73;;;11.70;99.90;;;;;;5074423;28;20036;-52
2024/03/07 11:39:46;;;;;;;20.63;14.57;;;11.80;99.90;;;;;;5080166;28;20064;-50
2024/03/07 11:42:28;;;;;;;16.98;12.98;;;12.00;99.90;;;;;;5074074;28;20049;-48
2024/03/07 11:44:56;;;;;;;;;;;12.20;99.90;;;;;;5080015;28;20048;-45
2024/03/07 11:47:35;;;;;;;14.95;12.27;;;12.30;99.90;;;;;;5077770;28;19920;-48
2024/03/07 11:50:08;;;;;;;19.13;13.75;;;12.60;99.90;;;;;;5069946;28;20178;-55
2024/03/07 11:52:36;;;;;;;18.58;13.82;;;12.90;99.90;;;;;;5068197;28;20044;-51
2024/03/07 11:55:03;;;;;;;18.67;13.80;;;13.20;99.90;;;;;;5077658;28;20079;-48
2024/03/07 11:57:34;;;;;;;17.00;13.02;;;13.20;99.90;;;;;;5075434;28;20044;-52
2024/03/07 12:00:11;;;;;;;17.10;13.85;;;13.00;99.90;;;;;;5069862;28;20059;-52
2024/03/07 12:02:39;;;;;;;16.85;13.07;;;12.80;99.90;;;;;;5070976;28;20053;-47
2024/03/07 12:05:07;;;;;;;18.30;12.82;;;12.70;99.90;;;;;;5076064;28;20048;-50
2024/03/07 12:07:34;;;;;;;16.63;13.38;;;12.50;99.90;;;;;;5071043;28;20040;-48
2024/03/07 12:10:06;;;;;;;20.27;14.20;;;12.10;99.90;;;;;;5080872;28;20223;-49
2024/03/07 12:12:33;;;;;;;18.00;13.05;;;11.90;99.90;;;;;;5070735;28;20448;-53
2024/03/07 12:15:09;;;;;;;17.75;12.48;;;11.80;99.90;;;;;;5076274;28;20244;-47
2024/03/07 12:17:36;;;;;;;17.88;13.57;;;11.60;99.90;;;;;;5071507;28;20048;-52
2024/03/07 12:20:24;;;;;;;17.33;12.63;;;11.40;99.90;;;;;;5077752;28;20048;-51
2024/03/07 12:22:54;;;;;;;18.83;13.68;;;11.30;99.90;;;;;;5076371;28;20117;-50
2024/03/07 12:25:21;;;;;;;18.98;13.57;;;11.20;99.90;;;;;;5074847;28;20048;-48
2024/03/07 12:28:10;;;;;;;16.27;12.80;;;11.00;99.90;;;;;;5072905;28;20101;-47
2024/03/07 12:30:46;;;;;;;18.15;13.70;;;10.70;99.90;;;;;;5078030;28;20512;-48
2024/03/07 12:33:13;;;;;;;17.45;13.15;;;10.60;99.90;;;;;;5067454;28;20051;-50
2024/03/07 12:35:44;;;;;;;19.65;14.35;;;10.40;99.90;;;;;;5077763;28;20529;-48
2024/03/07 12:38:13;;;;;;;20.33;14.13;;;10.40;99.90;;;;;;5076452;28;20089;-47
2024/03/07 12:40:40;;;;;;;18.15;13.55;;;10.40;99.90;;;;;;5070898;28;20127;-49
2024/03/07 12:43:16;;;;;;;;;;;10.40;99.90;;;;;;5066876;28;20063;-46
2024/03/07 12:45:50;;;;;;;16.10;12.83;;;10.30;99.90;;;;;;5069863;28;20304;-49
2024/03/07 12:48:19;;;;;;;16.95;12.77;;;10.20;99.90;;;;;;5075692;28;20151;-50